Paranhos, Brazil
Current Conditions -  °F | °C
As of 5:00 PM on Monday 20 Oct 2014 (Local Time) from SGES Reporting Station
Broken Clouds Broken Clouds  
Wind Chill: 84°   Ceiling: 20000
Heat Index: 86°   Visibility: 6mi
Dew Point: 66°   Wind: 5mph
Humidity: 55%   Direction: 110°ESE
Pressure: 29.94"   Gusts: NA
Location:  23.89°S, 55.43°W
Report Text: SGES 202100Z 11004KT 9999 FEW030 BKN200 29/19 Q1014
Loading
Personal Weather Stations






























Interactive Weather Map
Tropical Storm Tracking
New forecast layout! Learn more

10-Day Weather Forecast

Advertisements
Track Severe Weather on mobile